sensor_id;sensor_type;location;lat;lon;timestamp;pressure;altitude;pressure_sealevel;temperature;humidity
51603;BME280;37954;51.980;5.850;2023-06-05T00:03:19;101977.88;;;14.07;65.70
51603;BME280;37954;51.980;5.850;2023-06-05T00:07:31;101978.16;;;13.99;66.44
51603;BME280;37954;51.980;5.850;2023-06-05T00:11:43;101965.56;;;13.79;66.63
51603;BME280;37954;51.980;5.850;2023-06-05T00:15:55;101985.25;;;13.86;66.90
51603;BME280;37954;51.980;5.850;2023-06-05T00:20:08;101973.88;;;13.78;67.14
51603;BME280;37954;51.980;5.850;2023-06-05T00:24:22;101986.34;;;13.72;67.34
51603;BME280;37954;51.980;5.850;2023-06-05T00:28:34;101982.84;;;13.65;67.16
51603;BME280;37954;51.980;5.850;2023-06-05T00:32:46;101976.00;;;13.56;67.66
51603;BME280;37954;51.980;5.850;2023-06-05T00:36:58;101968.34;;;13.53;67.56
51603;BME280;37954;51.980;5.850;2023-06-05T00:41:11;101980.19;;;13.52;67.87
51603;BME280;37954;51.980;5.850;2023-06-05T00:45:23;101975.84;;;13.44;68.30
51603;BME280;37954;51.980;5.850;2023-06-05T00:49:35;101971.91;;;13.40;68.48
51603;BME280;37954;51.980;5.850;2023-06-05T00:53:47;101973.38;;;13.36;68.22
51603;BME280;37954;51.980;5.850;2023-06-05T00:58:00;101981.91;;;13.33;69.04
51603;BME280;37954;51.980;5.850;2023-06-05T01:02:13;101986.69;;;13.31;68.50
51603;BME280;37954;51.980;5.850;2023-06-05T01:06:26;101992.28;;;13.30;68.98
51603;BME280;37954;51.980;5.850;2023-06-05T01:10:38;101974.47;;;13.15;69.70
51603;BME280;37954;51.980;5.850;2023-06-05T01:14:51;101983.78;;;13.13;70.23
51603;BME280;37954;51.980;5.850;2023-06-05T01:19:13;101968.19;;;13.02;69.89
51603;BME280;37954;51.980;5.850;2023-06-05T01:23:26;101969.88;;;12.96;70.37
51603;BME280;37954;51.980;5.850;2023-06-05T01:27:54;101969.47;;;12.93;70.46
51603;BME280;37954;51.980;5.850;2023-06-05T01:32:13;101973.63;;;12.88;70.51
51603;BME280;37954;51.980;5.850;2023-06-05T01:36:28;101966.16;;;12.90;70.07
51603;BME280;37954;51.980;5.850;2023-06-05T01:40:41;101946.47;;;12.77;70.86
51603;BME280;37954;51.980;5.850;2023-06-05T01:44:53;101960.16;;;12.75;71.10
51603;BME280;37954;51.980;5.850;2023-06-05T01:49:05;101949.56;;;12.67;71.45
51603;BME280;37954;51.980;5.850;2023-06-05T01:53:17;101924.25;;;12.42;71.68
51603;BME280;37954;51.980;5.850;2023-06-05T01:57:29;101955.56;;;12.56;71.80
51603;BME280;37954;51.980;5.850;2023-06-05T02:01:42;101943.31;;;12.47;72.02
51603;BME280;37954;51.980;5.850;2023-06-05T02:05:55;101950.59;;;12.46;71.21
51603;BME280;37954;51.980;5.850;2023-06-05T02:10:08;101955.78;;;12.41;71.72
51603;BME280;37954;51.980;5.850;2023-06-05T02:14:20;101941.66;;;12.33;72.32
51603;BME280;37954;51.980;5.850;2023-06-05T02:18:34;101965.28;;;12.31;73.71
51603;BME280;37954;51.980;5.850;2023-06-05T02:22:48;101950.13;;;12.30;73.29
51603;BME280;37954;51.980;5.850;2023-06-05T02:27:03;101941.44;;;12.21;73.40
51603;BME280;37954;51.980;5.850;2023-06-05T02:31:16;101949.47;;;12.14;73.32
51603;BME280;37954;51.980;5.850;2023-06-05T02:35:28;101948.47;;;12.09;73.89
51603;BME280;37954;51.980;5.850;2023-06-05T02:39:41;101947.41;;;12.03;73.90
51603;BME280;37954;51.980;5.850;2023-06-05T02:43:53;101947.38;;;11.97;74.11
51603;BME280;37954;51.980;5.850;2023-06-05T02:48:07;101896.53;;;11.74;75.06
51603;BME280;37954;51.980;5.850;2023-06-05T02:52:18;101933.47;;;11.87;75.14
51603;BME280;37954;51.980;5.850;2023-06-05T02:56:30;101925.78;;;11.77;75.04
51603;BME280;37954;51.980;5.850;2023-06-05T03:00:42;101918.88;;;11.68;75.87
51603;BME280;37954;51.980;5.850;2023-06-05T03:04:54;101929.03;;;11.72;75.70
51603;BME280;37954;51.980;5.850;2023-06-05T03:09:10;101926.94;;;11.68;75.69
51603;BME280;37954;51.980;5.850;2023-06-05T03:13:23;101917.19;;;11.60;76.08
51603;BME280;37954;51.980;5.850;2023-06-05T03:17:35;101916.97;;;11.55;76.19
51603;BME280;37954;51.980;5.850;2023-06-05T03:21:47;101904.31;;;11.49;76.96
51603;BME280;37954;51.980;5.850;2023-06-05T03:26:00;101911.75;;;11.47;77.39
51603;BME280;37954;51.980;5.850;2023-06-05T03:30:12;101901.81;;;11.41;77.02
51603;BME280;37954;51.980;5.850;2023-06-05T03:34:31;101913.41;;;11.48;77.18
51603;BME280;37954;51.980;5.850;2023-06-05T03:38:45;101901.81;;;11.41;77.69
51603;BME280;37954;51.980;5.850;2023-06-05T03:42:57;101889.78;;;11.37;77.58
51603;BME280;37954;51.980;5.850;2023-06-05T03:47:10;101899.94;;;11.41;78.01
51603;BME280;37954;51.980;5.850;2023-06-05T03:51:23;101909.09;;;11.54;77.78
51603;BME280;37954;51.980;5.850;2023-06-05T03:55:34;101891.66;;;11.43;77.96
51603;BME280;37954;51.980;5.850;2023-06-05T04:00:06;101909.94;;;11.54;77.81
51603;BME280;37954;51.980;5.850;2023-06-05T04:04:24;101904.53;;;11.54;77.70
51603;BME280;37954;51.980;5.850;2023-06-05T04:08:36;101914.28;;;11.55;77.93
51603;BME280;37954;51.980;5.850;2023-06-05T04:12:49;101905.63;;;11.60;77.84
51603;BME280;37954;51.980;5.850;2023-06-05T04:17:01;101915.59;;;11.72;77.82
51603;BME280;37954;51.980;5.850;2023-06-05T04:21:13;101920.31;;;12.38;77.16
51603;BME280;37954;51.980;5.850;2023-06-05T04:25:25;101920.47;;;13.22;74.97
51603;BME280;37954;51.980;5.850;2023-06-05T04:29:40;101918.13;;;13.90;72.31
51603;BME280;37954;51.980;5.850;2023-06-05T04:33:53;101922.78;;;14.46;69.81
51603;BME280;37954;51.980;5.850;2023-06-05T04:38:05;101929.38;;;15.00;67.97
51603;BME280;37954;51.980;5.850;2023-06-05T04:42:17;101926.75;;;15.48;66.24
51603;BME280;37954;51.980;5.850;2023-06-05T04:46:31;101931.59;;;15.94;64.61
51603;BME280;37954;51.980;5.850;2023-06-05T04:50:43;101936.59;;;16.27;63.13
51603;BME280;37954;51.980;5.850;2023-06-05T04:54:56;101936.28;;;16.58;61.59
51603;BME280;37954;51.980;5.850;2023-06-05T04:59:09;101927.84;;;16.90;59.95
51603;BME280;37954;51.980;5.850;2023-06-05T05:03:20;101913.53;;;17.18;58.84
51603;BME280;37954;51.980;5.850;2023-06-05T05:07:33;101921.53;;;17.36;57.62
51603;BME280;37954;51.980;5.850;2023-06-05T05:11:46;101933.31;;;17.65;56.75
51603;BME280;37954;51.980;5.850;2023-06-05T05:15:58;101934.75;;;17.96;56.02
51603;BME280;37954;51.980;5.850;2023-06-05T05:20:11;101927.63;;;18.40;55.21
51603;BME280;37954;51.980;5.850;2023-06-05T05:24:23;101942.91;;;19.08;53.58
51603;BME280;37954;51.980;5.850;2023-06-05T05:28:36;101942.31;;;19.44;52.05
51603;BME280;37954;51.980;5.850;2023-06-05T05:32:48;101952.47;;;19.93;51.26
51603;BME280;37954;51.980;5.850;2023-06-05T05:37:23;101953.78;;;20.71;49.96
51603;BME280;37954;51.980;5.850;2023-06-05T05:41:35;101946.16;;;20.73;47.87
51603;BME280;37954;51.980;5.850;2023-06-05T05:45:47;101953.94;;;20.91;47.78
51603;BME280;37954;51.980;5.850;2023-06-05T05:49:59;101961.63;;;20.99;46.68
51603;BME280;37954;51.980;5.850;2023-06-05T05:54:11;101944.41;;;21.36;46.25
51603;BME280;37954;51.980;5.850;2023-06-05T05:58:22;101942.81;;;21.50;44.94
51603;BME280;37954;51.980;5.850;2023-06-05T06:02:34;101954.88;;;21.54;44.97
51603;BME280;37954;51.980;5.850;2023-06-05T06:06:46;101954.41;;;21.72;44.74
51603;BME280;37954;51.980;5.850;2023-06-05T06:11:04;101954.84;;;22.21;43.76
51603;BME280;37954;51.980;5.850;2023-06-05T06:15:18;101954.03;;;22.51;43.11
51603;BME280;37954;51.980;5.850;2023-06-05T06:19:30;101957.09;;;22.80;42.66
51603;BME280;37954;51.980;5.850;2023-06-05T06:23:44;101966.31;;;23.30;41.63
51603;BME280;37954;51.980;5.850;2023-06-05T06:27:56;101968.63;;;23.77;40.81
51603;BME280;37954;51.980;5.850;2023-06-05T06:32:08;101953.41;;;24.05;40.29
51603;BME280;37954;51.980;5.850;2023-06-05T06:36:20;101956.84;;;24.21;39.55
51603;BME280;37954;51.980;5.850;2023-06-05T06:40:33;101954.31;;;24.35;39.39
51603;BME280;37954;51.980;5.850;2023-06-05T06:44:45;101964.38;;;24.49;38.35
51603;BME280;37954;51.980;5.850;2023-06-05T06:48:57;101961.25;;;24.22;38.70
51603;BME280;37954;51.980;5.850;2023-06-05T06:53:09;101949.19;;;24.57;38.45
51603;BME280;37954;51.980;5.850;2023-06-05T06:57:47;101966.28;;;24.83;37.46
51603;BME280;37954;51.980;5.850;2023-06-05T07:06:24;101972.56;;;25.17;36.60
51603;BME280;37954;51.980;5.850;2023-06-05T07:10:36;101953.59;;;25.63;35.84
51603;BME280;37954;51.980;5.850;2023-06-05T07:14:48;101976.94;;;25.90;35.58
51603;BME280;37954;51.980;5.850;2023-06-05T07:19:00;101967.78;;;25.76;35.05
51603;BME280;37954;51.980;5.850;2023-06-05T07:23:14;101978.53;;;26.15;34.98
51603;BME280;37954;51.980;5.850;2023-06-05T07:27:26;101978.38;;;26.25;34.42
51603;BME280;37954;51.980;5.850;2023-06-05T07:31:40;101971.16;;;26.48;34.14
51603;BME280;37954;51.980;5.850;2023-06-05T07:35:52;101973.69;;;26.77;33.83
51603;BME280;37954;51.980;5.850;2023-06-05T07:40:03;101965.97;;;26.92;33.55
51603;BME280;37954;51.980;5.850;2023-06-05T07:44:18;101965.94;;;27.11;33.56
51603;BME280;37954;51.980;5.850;2023-06-05T07:48:30;101966.78;;;27.66;33.21
51603;BME280;37954;51.980;5.850;2023-06-05T07:52:43;101981.25;;;27.99;32.35
51603;BME280;37954;51.980;5.850;2023-06-05T07:56:54;101964.09;;;28.25;32.03
51603;BME280;37954;51.980;5.850;2023-06-05T08:01:10;101968.94;;;28.41;32.06
51603;BME280;37954;51.980;5.850;2023-06-05T08:05:22;101971.72;;;28.64;31.39
51603;BME280;37954;51.980;5.850;2023-06-05T08:09:33;101965.44;;;28.50;31.19
51603;BME280;37954;51.980;5.850;2023-06-05T08:13:50;101964.41;;;28.23;31.31
51603;BME280;37954;51.980;5.850;2023-06-05T08:18:02;101962.16;;;28.48;31.51
51603;BME280;37954;51.980;5.850;2023-06-05T08:22:14;101946.72;;;28.77;31.35
51603;BME280;37954;51.980;5.850;2023-06-05T08:26:26;101953.66;;;29.59;30.92
51603;BME280;37954;51.980;5.850;2023-06-05T08:30:37;101934.44;;;29.80;30.42
51603;BME280;37954;51.980;5.850;2023-06-05T08:34:49;101940.31;;;29.87;29.78
51603;BME280;37954;51.980;5.850;2023-06-05T08:39:01;101942.94;;;29.75;29.53
51603;BME280;37954;51.980;5.850;2023-06-05T08:43:13;101943.72;;;29.58;30.18
51603;BME280;37954;51.980;5.850;2023-06-05T08:47:28;101933.31;;;29.90;29.81
51603;BME280;37954;51.980;5.850;2023-06-05T08:51:41;101916.69;;;30.33;29.60
51603;BME280;37954;51.980;5.850;2023-06-05T08:55:54;101937.22;;;30.66;28.81
51603;BME280;37954;51.980;5.850;2023-06-05T09:00:07;101932.16;;;30.68;28.86
51603;BME280;37954;51.980;5.850;2023-06-05T09:04:22;101915.56;;;30.17;29.03
51603;BME280;37954;51.980;5.850;2023-06-05T09:08:37;101925.50;;;30.43;29.28
51603;BME280;37954;51.980;5.850;2023-06-05T09:13:01;101920.59;;;30.40;28.92
51603;BME280;37954;51.980;5.850;2023-06-05T09:17:14;101919.06;;;30.77;29.22
51603;BME280;37954;51.980;5.850;2023-06-05T09:21:26;101922.22;;;31.05;28.66
51603;BME280;37954;51.980;5.850;2023-06-05T09:25:46;101912.31;;;30.96;28.54
51603;BME280;37954;51.980;5.850;2023-06-05T09:30:03;101917.59;;;30.80;28.68
51603;BME280;37954;51.980;5.850;2023-06-05T09:38:34;101906.03;;;30.52;28.75
51603;BME280;37954;51.980;5.850;2023-06-05T09:42:46;101910.84;;;30.98;28.69
51603;BME280;37954;51.980;5.850;2023-06-05T09:47:02;101911.44;;;31.42;28.15
51603;BME280;37954;51.980;5.850;2023-06-05T09:51:17;101897.72;;;31.87;27.08
51603;BME280;37954;51.980;5.850;2023-06-05T09:55:29;101911.09;;;31.94;27.05
51603;BME280;37954;51.980;5.850;2023-06-05T09:59:52;101909.28;;;31.77;27.53
51603;BME280;37954;51.980;5.850;2023-06-05T10:04:09;101900.31;;;31.71;27.71
51603;BME280;37954;51.980;5.850;2023-06-05T10:08:22;101886.31;;;31.68;27.24
51603;BME280;37954;51.980;5.850;2023-06-05T10:12:34;101881.81;;;31.75;26.99
51603;BME280;37954;51.980;5.850;2023-06-05T10:16:50;101879.34;;;32.15;26.89
51603;BME280;37954;51.980;5.850;2023-06-05T10:21:03;101888.13;;;32.38;26.78
51603;BME280;37954;51.980;5.850;2023-06-05T10:25:17;101884.69;;;32.54;26.36
51603;BME280;37954;51.980;5.850;2023-06-05T10:29:39;101885.88;;;32.65;26.00
51603;BME280;37954;51.980;5.850;2023-06-05T10:38:26;101894.88;;;33.07;25.24
51603;BME280;37954;51.980;5.850;2023-06-05T10:42:38;101882.31;;;33.13;25.73
51603;BME280;37954;51.980;5.850;2023-06-05T10:46:50;101882.69;;;32.99;25.93
51603;BME280;37954;51.980;5.850;2023-06-05T10:55:54;101881.19;;;32.90;25.53
51603;BME280;37954;51.980;5.850;2023-06-05T11:00:06;101875.94;;;32.31;25.85
51603;BME280;37954;51.980;5.850;2023-06-05T11:04:20;101869.56;;;32.09;26.21
51603;BME280;37954;51.980;5.850;2023-06-05T11:08:32;101864.69;;;32.06;26.45
51603;BME280;37954;51.980;5.850;2023-06-05T11:16:56;101866.59;;;32.47;26.35
51603;BME280;37954;51.980;5.850;2023-06-05T11:21:08;101859.06;;;32.60;26.27
51603;BME280;37954;51.980;5.850;2023-06-05T11:29:42;101838.03;;;32.26;25.57
51603;BME280;37954;51.980;5.850;2023-06-05T11:33:55;101834.00;;;32.03;26.20
51603;BME280;37954;51.980;5.850;2023-06-05T11:38:11;101838.03;;;31.72;26.54
51603;BME280;37954;51.980;5.850;2023-06-05T11:42:23;101840.47;;;31.74;26.35
51603;BME280;37954;51.980;5.850;2023-06-05T11:46:36;101820.53;;;31.72;25.90
51603;BME280;37954;51.980;5.850;2023-06-05T11:55:18;101833.25;;;31.94;25.84
51603;BME280;37954;51.980;5.850;2023-06-05T11:59:37;101821.53;;;31.88;25.31
51603;BME280;37954;51.980;5.850;2023-06-05T12:04:04;101824.19;;;31.85;26.00
51603;BME280;37954;51.980;5.850;2023-06-05T12:08:26;101826.81;;;31.60;25.42
51603;BME280;37954;51.980;5.850;2023-06-05T12:12:54;101820.78;;;31.08;25.70
51603;BME280;37954;51.980;5.850;2023-06-05T12:17:12;101820.22;;;30.64;26.72
51603;BME280;37954;51.980;5.850;2023-06-05T12:21:26;101789.44;;;30.31;26.97
51603;BME280;37954;51.980;5.850;2023-06-05T12:25:38;101814.28;;;30.19;27.00
51603;BME280;37954;51.980;5.850;2023-06-05T12:29:53;101790.38;;;29.54;27.51
51603;BME280;37954;51.980;5.850;2023-06-05T12:34:08;101791.81;;;29.34;28.21
51603;BME280;37954;51.980;5.850;2023-06-05T12:38:20;101799.78;;;29.19;28.21
51603;BME280;37954;51.980;5.850;2023-06-05T12:42:34;101797.00;;;29.27;28.55
51603;BME280;37954;51.980;5.850;2023-06-05T12:46:49;101798.63;;;29.20;27.67
51603;BME280;37954;51.980;5.850;2023-06-05T12:51:01;101793.38;;;29.09;27.61
51603;BME280;37954;51.980;5.850;2023-06-05T12:55:13;101781.03;;;29.16;28.05
51603;BME280;37954;51.980;5.850;2023-06-05T12:59:25;101779.72;;;29.04;28.53
51603;BME280;37954;51.980;5.850;2023-06-05T13:03:37;101779.56;;;29.09;29.17
51603;BME280;37954;51.980;5.850;2023-06-05T13:07:49;101772.56;;;29.12;28.65
51603;BME280;37954;51.980;5.850;2023-06-05T13:12:03;101763.13;;;29.04;27.96
51603;BME280;37954;51.980;5.850;2023-06-05T13:16:15;101755.44;;;28.93;28.45
51603;BME280;37954;51.980;5.850;2023-06-05T13:20:27;101757.31;;;28.75;29.03
51603;BME280;37954;51.980;5.850;2023-06-05T13:24:39;101737.44;;;28.56;28.86
51603;BME280;37954;51.980;5.850;2023-06-05T13:28:51;101720.91;;;28.33;29.01
51603;BME280;37954;51.980;5.850;2023-06-05T13:33:03;101739.94;;;28.35;29.09
51603;BME280;37954;51.980;5.850;2023-06-05T13:37:15;101749.63;;;28.24;28.32
51603;BME280;37954;51.980;5.850;2023-06-05T13:41:27;101729.47;;;28.23;28.31
51603;BME280;37954;51.980;5.850;2023-06-05T13:45:39;101739.59;;;28.05;28.56
51603;BME280;37954;51.980;5.850;2023-06-05T13:49:51;101744.03;;;27.84;29.03
51603;BME280;37954;51.980;5.850;2023-06-05T13:54:05;101736.50;;;27.76;29.52
51603;BME280;37954;51.980;5.850;2023-06-05T13:58:16;101736.97;;;27.69;28.58
51603;BME280;37954;51.980;5.850;2023-06-05T14:02:28;101739.69;;;27.47;29.38
51603;BME280;37954;51.980;5.850;2023-06-05T14:06:40;101741.31;;;27.48;29.47
51603;BME280;37954;51.980;5.850;2023-06-05T14:10:53;101741.81;;;27.50;29.65
51603;BME280;37954;51.980;5.850;2023-06-05T14:15:06;101734.53;;;27.32;29.56
51603;BME280;37954;51.980;5.850;2023-06-05T14:19:18;101724.97;;;27.38;29.92
51603;BME280;37954;51.980;5.850;2023-06-05T14:29:53;101715.63;;;27.25;30.95
51603;BME280;37954;51.980;5.850;2023-06-05T14:34:05;101710.25;;;27.07;30.78
51603;BME280;37954;51.980;5.850;2023-06-05T14:38:17;101707.81;;;27.05;30.80
51603;BME280;37954;51.980;5.850;2023-06-05T14:42:30;101716.91;;;27.06;31.04
51603;BME280;37954;51.980;5.850;2023-06-05T14:46:42;101719.81;;;27.00;30.67
51603;BME280;37954;51.980;5.850;2023-06-05T14:50:55;101709.69;;;26.82;31.00
51603;BME280;37954;51.980;5.850;2023-06-05T14:55:07;101701.13;;;26.84;30.56
51603;BME280;37954;51.980;5.850;2023-06-05T14:59:19;101693.97;;;26.83;30.72
51603;BME280;37954;51.980;5.850;2023-06-05T15:03:34;101692.84;;;26.70;31.16
51603;BME280;37954;51.980;5.850;2023-06-05T15:07:47;101705.72;;;26.61;31.13
51603;BME280;37954;51.980;5.850;2023-06-05T15:11:59;101673.06;;;26.54;30.81
51603;BME280;37954;51.980;5.850;2023-06-05T15:16:11;101679.38;;;26.55;30.73
51603;BME280;37954;51.980;5.850;2023-06-05T15:20:23;101669.28;;;26.37;31.17
51603;BME280;37954;51.980;5.850;2023-06-05T15:24:35;101667.94;;;26.20;31.72
51603;BME280;37954;51.980;5.850;2023-06-05T15:28:47;101670.41;;;26.22;31.93
51603;BME280;37954;51.980;5.850;2023-06-05T15:32:59;101670.00;;;26.15;32.06
51603;BME280;37954;51.980;5.850;2023-06-05T15:37:12;101675.38;;;26.20;32.29
51603;BME280;37954;51.980;5.850;2023-06-05T15:41:24;101666.00;;;26.21;32.52
51603;BME280;37954;51.980;5.850;2023-06-05T15:45:36;101660.78;;;26.19;32.28
51603;BME280;37954;51.980;5.850;2023-06-05T15:49:48;101666.00;;;26.21;32.66
51603;BME280;37954;51.980;5.850;2023-06-05T15:54:00;101675.19;;;26.16;32.50
51603;BME280;37954;51.980;5.850;2023-06-05T15:58:32;101657.13;;;26.10;32.73
51603;BME280;37954;51.980;5.850;2023-06-05T16:02:44;101661.81;;;26.10;32.45
51603;BME280;37954;51.980;5.850;2023-06-05T16:06:56;101659.69;;;26.07;31.97
51603;BME280;37954;51.980;5.850;2023-06-05T16:11:08;101670.25;;;25.99;32.65
51603;BME280;37954;51.980;5.850;2023-06-05T16:15:21;101656.09;;;25.79;33.39
51603;BME280;37954;51.980;5.850;2023-06-05T16:19:32;101639.56;;;25.79;33.66
51603;BME280;37954;51.980;5.850;2023-06-05T16:23:44;101654.63;;;25.81;33.38
51603;BME280;37954;51.980;5.850;2023-06-05T16:27:56;101657.19;;;25.78;33.47
51603;BME280;37954;51.980;5.850;2023-06-05T16:32:08;101650.75;;;25.69;32.81
51603;BME280;37954;51.980;5.850;2023-06-05T16:36:20;101660.88;;;25.54;33.65
51603;BME280;37954;51.980;5.850;2023-06-05T16:40:32;101645.28;;;25.31;33.84
51603;BME280;37954;51.980;5.850;2023-06-05T16:44:43;101649.47;;;25.28;34.19
51603;BME280;37954;51.980;5.850;2023-06-05T16:48:55;101639.75;;;25.17;34.49
51603;BME280;37954;51.980;5.850;2023-06-05T16:53:07;101629.34;;;25.14;34.58
51603;BME280;37954;51.980;5.850;2023-06-05T16:57:19;101639.22;;;25.15;34.79
51603;BME280;37954;51.980;5.850;2023-06-05T17:01:30;101642.44;;;25.04;35.30
51603;BME280;37954;51.980;5.850;2023-06-05T17:05:42;101636.13;;;25.03;35.39
51603;BME280;37954;51.980;5.850;2023-06-05T17:09:55;101629.78;;;24.84;35.64
51603;BME280;37954;51.980;5.850;2023-06-05T17:14:06;101626.97;;;24.70;35.92
51603;BME280;37954;51.980;5.850;2023-06-05T17:18:19;101635.34;;;24.60;36.33
51603;BME280;37954;51.980;5.850;2023-06-05T17:22:31;101629.75;;;24.46;36.29
51603;BME280;37954;51.980;5.850;2023-06-05T17:26:43;101624.03;;;24.43;36.82
51603;BME280;37954;51.980;5.850;2023-06-05T17:30:55;101629.59;;;24.38;37.02
51603;BME280;37954;51.980;5.850;2023-06-05T17:35:07;101623.41;;;24.27;36.77
51603;BME280;37954;51.980;5.850;2023-06-05T17:39:19;101624.91;;;24.14;37.27
51603;BME280;37954;51.980;5.850;2023-06-05T17:43:31;101619.69;;;24.13;37.42
51603;BME280;37954;51.980;5.850;2023-06-05T17:47:43;101634.91;;;24.05;38.07
51603;BME280;37954;51.980;5.850;2023-06-05T17:51:55;101629.81;;;23.93;38.12
51603;BME280;37954;51.980;5.850;2023-06-05T17:56:07;101637.34;;;23.83;38.44
51603;BME280;37954;51.980;5.850;2023-06-05T18:00:23;101631.06;;;23.77;38.80
51603;BME280;37954;51.980;5.850;2023-06-05T18:04:35;101633.66;;;23.69;39.31
51603;BME280;37954;51.980;5.850;2023-06-05T18:08:47;101634.00;;;23.57;40.70
51603;BME280;37954;51.980;5.850;2023-06-05T18:13:02;101660.13;;;23.49;41.07
51603;BME280;37954;51.980;5.850;2023-06-05T18:17:13;101642.69;;;23.35;41.25
51603;BME280;37954;51.980;5.850;2023-06-05T18:21:25;101650.13;;;23.30;41.59
51603;BME280;37954;51.980;5.850;2023-06-05T18:25:37;101650.22;;;23.19;42.19
51603;BME280;37954;51.980;5.850;2023-06-05T18:29:48;101656.09;;;23.03;42.79
51603;BME280;37954;51.980;5.850;2023-06-05T18:34:00;101653.44;;;22.87;43.50
51603;BME280;37954;51.980;5.850;2023-06-05T18:38:12;101652.09;;;22.75;44.14
51603;BME280;37954;51.980;5.850;2023-06-05T18:42:24;101644.84;;;22.50;44.63
51603;BME280;37954;51.980;5.850;2023-06-05T18:46:37;101647.66;;;22.30;45.42
51603;BME280;37954;51.980;5.850;2023-06-05T18:50:49;101641.97;;;22.16;45.76
51603;BME280;37954;51.980;5.850;2023-06-05T18:55:01;101641.16;;;22.00;46.47
51603;BME280;37954;51.980;5.850;2023-06-05T18:59:13;101641.16;;;21.90;46.73
51603;BME280;37954;51.980;5.850;2023-06-05T19:03:26;101658.13;;;21.87;46.98
51603;BME280;37954;51.980;5.850;2023-06-05T19:07:39;101667.19;;;21.77;47.46
51603;BME280;37954;51.980;5.850;2023-06-05T19:11:51;101653.81;;;21.56;47.81
51603;BME280;37954;51.980;5.850;2023-06-05T19:16:03;101657.63;;;21.44;48.45
51603;BME280;37954;51.980;5.850;2023-06-05T19:20:15;101654.91;;;21.29;48.96
51603;BME280;37954;51.980;5.850;2023-06-05T19:24:27;101664.69;;;21.15;49.34
51603;BME280;37954;51.980;5.850;2023-06-05T19:28:38;101666.84;;;20.93;50.01
51603;BME280;37954;51.980;5.850;2023-06-05T19:32:50;101671.16;;;20.83;50.02
51603;BME280;37954;51.980;5.850;2023-06-05T19:37:03;101671.41;;;20.72;50.55
51603;BME280;37954;51.980;5.850;2023-06-05T19:41:14;101676.28;;;20.55;51.36
51603;BME280;37954;51.980;5.850;2023-06-05T19:45:27;101680.59;;;20.40;51.66
51603;BME280;37954;51.980;5.850;2023-06-05T19:49:39;101664.03;;;20.15;52.08
51603;BME280;37954;51.980;5.850;2023-06-05T19:53:51;101683.09;;;20.10;52.32
51603;BME280;37954;51.980;5.850;2023-06-05T19:58:02;101702.91;;;19.95;53.08
51603;BME280;37954;51.980;5.850;2023-06-05T20:02:14;101696.47;;;19.74;53.24
51603;BME280;37954;51.980;5.850;2023-06-05T20:06:26;101700.16;;;19.53;53.96
51603;BME280;37954;51.980;5.850;2023-06-05T20:10:38;101718.06;;;19.49;54.16
51603;BME280;37954;51.980;5.850;2023-06-05T20:14:50;101725.91;;;19.45;54.24
51603;BME280;37954;51.980;5.850;2023-06-05T20:19:02;101726.09;;;19.34;54.66
51603;BME280;37954;51.980;5.850;2023-06-05T20:23:13;101729.84;;;19.28;54.80
51603;BME280;37954;51.980;5.850;2023-06-05T20:27:27;101723.09;;;19.08;55.20
51603;BME280;37954;51.980;5.850;2023-06-05T20:31:39;101728.94;;;18.95;55.81
51603;BME280;37954;51.980;5.850;2023-06-05T20:35:53;101735.84;;;18.81;56.05
51603;BME280;37954;51.980;5.850;2023-06-05T20:40:05;101711.09;;;18.61;56.35
51603;BME280;37954;51.980;5.850;2023-06-05T20:44:20;101723.06;;;18.60;56.50
51603;BME280;37954;51.980;5.850;2023-06-05T20:48:32;101718.25;;;18.28;56.95
51603;BME280;37954;51.980;5.850;2023-06-05T20:52:45;101729.38;;;18.27;57.47
51603;BME280;37954;51.980;5.850;2023-06-05T20:57:07;101744.88;;;18.26;57.37
51603;BME280;37954;51.980;5.850;2023-06-05T21:01:20;101733.69;;;18.06;57.73
51603;BME280;37954;51.980;5.850;2023-06-05T21:05:33;101738.72;;;17.97;58.25
51603;BME280;37954;51.980;5.850;2023-06-05T21:09:45;101742.44;;;17.91;57.98
51603;BME280;37954;51.980;5.850;2023-06-05T21:13:56;101735.69;;;17.77;58.48
51603;BME280;37954;51.980;5.850;2023-06-05T21:18:08;101740.69;;;17.68;58.50
51603;BME280;37954;51.980;5.850;2023-06-05T21:22:20;101748.16;;;17.61;59.08
51603;BME280;37954;51.980;5.850;2023-06-05T21:26:35;101742.47;;;17.46;59.39
51603;BME280;37954;51.980;5.850;2023-06-05T21:30:52;101740.13;;;17.38;59.51
51603;BME280;37954;51.980;5.850;2023-06-05T21:35:10;101750.47;;;17.24;59.91
51603;BME280;37954;51.980;5.850;2023-06-05T21:39:21;101755.94;;;17.13;60.69
51603;BME280;37954;51.980;5.850;2023-06-05T21:43:33;101744.53;;;16.99;60.84
51603;BME280;37954;51.980;5.850;2023-06-05T21:47:45;101740.22;;;16.86;61.08
51603;BME280;37954;51.980;5.850;2023-06-05T21:51:57;101737.06;;;16.78;61.12
51603;BME280;37954;51.980;5.850;2023-06-05T21:56:10;101740.38;;;16.68;61.66
51603;BME280;37954;51.980;5.850;2023-06-05T22:00:45;101738.84;;;16.60;61.68
51603;BME280;37954;51.980;5.850;2023-06-05T22:04:56;101746.38;;;16.47;62.13
51603;BME280;37954;51.980;5.850;2023-06-05T22:09:08;101737.44;;;16.34;62.30
51603;BME280;37954;51.980;5.850;2023-06-05T22:13:21;101754.75;;;16.33;62.51
51603;BME280;37954;51.980;5.850;2023-06-05T22:17:33;101741.44;;;16.20;62.87
51603;BME280;37954;51.980;5.850;2023-06-05T22:21:47;101763.75;;;16.22;63.12
51603;BME280;37954;51.980;5.850;2023-06-05T22:25:59;101760.78;;;16.12;63.02
51603;BME280;37954;51.980;5.850;2023-06-05T22:30:11;101771.38;;;16.02;63.33
51603;BME280;37954;51.980;5.850;2023-06-05T22:34:23;101764.66;;;15.93;63.47
51603;BME280;37954;51.980;5.850;2023-06-05T22:38:35;101755.88;;;15.68;63.82
51603;BME280;37954;51.980;5.850;2023-06-05T22:42:47;101760.72;;;15.65;64.01